Time;durP1;ratioP1;P1;durP2;ratioP2;P2;SDS_P1;SDS_P2;PMS_P1;PMS_P2;Temp;Humidity;BMP_temperature;BMP_pressure;BME280_temperature;BME280_humidity;BME280_pressure;Samples;Min_cycle;Max_cycle;Signal;HPM_P1;HPM_P2
2023/01/02 00:02:05;;;;;;;8.20;5.40;;;11.40;99.90;;;;;;5056987;28;20453;-78
2023/01/02 00:04:33;;;;;;;7.57;5.63;;;11.40;99.90;;;;;;5057845;28;20457;-76
2023/01/02 00:07:01;;;;;;;8.80;5.57;;;11.40;99.90;;;;;;5057152;28;20457;-78
2023/01/02 00:09:30;;;;;;;8.70;5.80;;;11.40;99.90;;;;;;5057094;28;20476;-78
2023/01/02 00:11:59;;;;;;;10.60;6.30;;;11.40;99.90;;;;;;5056684;28;20449;-78
2023/01/02 00:14:27;;;;;;;7.10;5.50;;;11.40;99.90;;;;;;5056503;28;20455;-78
2023/01/02 00:16:56;;;;;;;8.73;6.10;;;11.40;99.90;;;;;;5074519;28;20456;-78
2023/01/02 00:19:24;;;;;;;12.20;6.00;;;11.40;99.90;;;;;;5056619;28;20457;-78
2023/01/02 00:21:53;;;;;;;10.33;6.77;;;11.40;99.90;;;;;;5056903;28;20448;-78
2023/01/02 00:24:21;;;;;;;8.60;5.63;;;11.40;99.90;;;;;;5056527;28;20536;-78
2023/01/02 00:26:49;;;;;;;8.87;5.50;;;11.30;99.90;;;;;;5056844;28;20472;-77
2023/01/02 00:29:19;;;;;;;8.87;5.73;;;11.40;99.90;;;;;;5073392;28;20464;-77
2023/01/02 00:31:47;;;;;;;9.90;5.47;;;11.30;99.90;;;;;;5074867;28;20536;-78
2023/01/02 00:34:16;;;;;;;8.27;6.10;;;11.30;99.90;;;;;;5076096;28;20437;-76
2023/01/02 00:36:44;;;;;;;9.30;6.87;;;11.40;99.90;;;;;;5073802;28;20506;-77
2023/01/02 00:39:12;;;;;;;7.57;5.80;;;11.30;99.90;;;;;;5072953;28;20428;-77
2023/01/02 00:41:41;;;;;;;7.80;6.40;;;11.30;99.90;;;;;;5058157;28;20453;-78
2023/01/02 00:44:09;;;;;;;8.63;6.30;;;11.30;99.90;;;;;;5056315;28;20490;-78
2023/01/02 00:46:40;;;;;;;8.07;6.00;;;11.30;99.90;;;;;;5078159;28;20460;-78
2023/01/02 00:49:09;;;;;;;8.67;5.70;;;11.40;99.90;;;;;;5060259;28;20468;-78
2023/01/02 00:51:37;;;;;;;8.20;5.90;;;11.30;99.90;;;;;;5077726;28;20464;-78
2023/01/02 00:54:05;;;;;;;9.33;7.33;;;11.30;99.90;;;;;;5059687;28;20946;-77
2023/01/02 00:56:33;;;;;;;8.33;6.93;;;11.30;99.90;;;;;;5059438;28;20461;-77
2023/01/02 00:59:01;;;;;;;8.77;6.50;;;11.30;99.90;;;;;;5077905;28;20444;-78
2023/01/02 01:01:30;;;;;;;7.70;5.77;;;11.30;99.90;;;;;;5077506;28;20444;-77
2023/01/02 01:04:00;;;;;;;9.20;6.30;;;11.30;99.90;;;;;;5059474;28;20506;-77
2023/01/02 01:06:28;;;;;;;8.17;6.00;;;11.30;99.90;;;;;;5077131;28;20514;-77
2023/01/02 01:08:57;;;;;;;8.97;6.63;;;11.30;99.90;;;;;;5059044;28;20472;-78
2023/01/02 01:11:26;;;;;;;8.50;7.10;;;11.30;99.90;;;;;;5059109;28;20970;-77
2023/01/02 01:13:54;;;;;;;10.13;6.47;;;11.30;99.90;;;;;;5077404;28;20453;-78
2023/01/02 01:16:22;;;;;;;8.17;6.07;;;11.30;99.90;;;;;;5077160;28;20493;-77
2023/01/02 01:18:55;;;;;;;9.70;6.90;;;11.30;99.90;;;;;;5058755;28;20946;-77
2023/01/02 01:21:25;;;;;;;7.63;6.77;;;11.30;99.90;;;;;;5058710;28;20453;-78
2023/01/02 01:23:55;;;;;;;8.17;6.80;;;11.30;99.90;;;;;;5059099;28;20478;-77
2023/01/02 01:26:24;;;;;;;10.03;6.80;;;11.30;99.90;;;;;;5076685;28;20560;-77
2023/01/02 01:28:53;;;;;;;9.50;7.37;;;11.30;99.90;;;;;;5058762;28;20476;-77
2023/01/02 01:31:22;;;;;;;9.20;6.27;;;11.30;99.90;;;;;;5059229;28;20460;-78
2023/01/02 01:33:50;;;;;;;7.03;6.20;;;11.30;99.90;;;;;;5059593;28;20449;-78
2023/01/02 01:36:20;;;;;;;9.73;6.97;;;11.40;99.90;;;;;;5059187;28;20989;-78
2023/01/02 01:38:50;;;;;;;9.50;6.63;;;11.40;99.90;;;;;;5076602;28;20451;-78
2023/01/02 01:41:22;;;;;;;8.40;6.30;;;11.40;99.90;;;;;;5058819;28;20465;-77
2023/01/02 01:43:52;;;;;;;7.53;6.50;;;11.40;99.90;;;;;;5076866;28;20829;-77
2023/01/02 01:46:25;;;;;;;12.40;6.17;;;11.40;99.90;;;;;;5059435;28;20465;-77
2023/01/02 01:49:00;;;;;;;7.87;6.13;;;11.40;99.90;;;;;;5058144;28;20442;-77
2023/01/02 01:51:30;;;;;;;11.63;6.70;;;11.40;99.90;;;;;;5076975;28;20498;-78
2023/01/02 01:54:06;;;;;;;11.03;7.20;;;11.40;99.90;;;;;;5059013;28;20469;-77
2023/01/02 01:56:37;;;;;;;8.00;6.53;;;11.40;99.90;;;;;;5076133;28;20551;-78
2023/01/02 01:59:06;;;;;;;10.37;7.50;;;11.40;99.90;;;;;;5057978;28;20457;-78
2023/01/02 02:01:34;;;;;;;10.20;6.63;;;11.40;99.90;;;;;;5057930;28;20437;-77
2023/01/02 02:04:03;;;;;;;10.43;7.10;;;11.40;99.90;;;;;;5058829;28;20498;-77
2023/01/02 02:06:31;;;;;;;7.77;6.73;;;11.40;99.90;;;;;;5059262;28;20472;-77
2023/01/02 02:09:04;;;;;;;9.60;7.57;;;11.40;99.90;;;;;;5059184;28;20474;-77
2023/01/02 02:11:33;;;;;;;9.37;7.57;;;11.40;99.90;;;;;;5077502;28;20429;-78
2023/01/02 02:14:02;;;;;;;10.80;7.67;;;11.40;99.90;;;;;;5060124;28;20433;-77
2023/01/02 02:16:43;;;;;;;9.63;7.10;;;11.50;99.90;;;;;;5059693;28;20468;-77
2023/01/02 02:19:40;;;;;;;10.70;8.30;;;11.50;99.90;;;;;;5077975;28;20527;-77
2023/01/02 02:22:24;;;;;;;10.53;7.57;;;11.50;99.90;;;;;;5077171;28;20471;-77
2023/01/02 02:25:08;;;;;;;10.73;7.90;;;11.50;99.90;;;;;;5058533;28;20544;-77
2023/01/02 02:28:07;;;;;;;8.90;7.37;;;11.50;99.90;;;;;;5058912;28;20434;-77
2023/01/02 02:30:40;;;;;;;13.30;7.50;;;11.50;99.90;;;;;;5057820;28;20491;-77
2023/01/02 02:33:26;;;;;;;12.67;7.43;;;11.50;99.90;;;;;;5076737;28;20475;-77
2023/01/02 02:36:03;;;;;;;11.93;7.63;;;11.50;99.90;;;;;;5058865;28;20560;-77
2023/01/02 02:38:43;;;;;;;10.43;7.70;;;11.50;99.90;;;;;;5058662;28;20437;-77
2023/01/02 02:41:26;;;;;;;9.50;7.57;;;11.50;99.90;;;;;;5060091;28;20441;-78
2023/01/02 02:44:05;;;;;;;13.73;8.07;;;11.50;99.90;;;;;;5058590;28;20540;-77
2023/01/02 02:46:46;;;;;;;11.83;7.23;;;11.50;99.90;;;;;;5057560;28;20484;-77
2023/01/02 02:49:21;;;;;;;8.63;7.60;;;11.60;99.90;;;;;;5058204;28;20969;-78
2023/01/02 02:51:56;;;;;;;11.00;8.20;;;11.60;99.90;;;;;;5058079;28;20455;-78
2023/01/02 02:54:31;;;;;;;9.37;8.03;;;11.60;99.90;;;;;;5058020;28;20458;-78
2023/01/02 02:57:01;;;;;;;9.20;7.30;;;11.60;99.90;;;;;;5058414;28;21076;-78
2023/01/02 02:59:30;;;;;;;13.40;7.93;;;11.70;99.90;;;;;;5076035;28;20441;-78
2023/01/02 03:01:59;;;;;;;10.80;8.40;;;11.70;99.90;;;;;;5057418;28;20439;-77
2023/01/02 03:04:28;;;;;;;11.20;8.30;;;11.70;99.90;;;;;;5058120;28;20503;-78
2023/01/02 03:07:11;;;;;;;10.70;7.90;;;11.80;99.90;;;;;;5074824;28;20459;-78
2023/01/02 03:09:49;;;;;;;14.73;8.83;;;11.90;99.90;;;;;;5057168;28;20820;-77
2023/01/02 03:12:30;;;;;;;11.00;7.70;;;11.90;99.90;;;;;;5075417;28;20421;-78
2023/01/02 03:15:08;;;;;;;10.90;7.50;;;11.90;99.90;;;;;;5075565;28;20902;-78
2023/01/02 03:17:52;;;;;;;14.17;8.97;;;12.00;99.90;;;;;;5057376;28;20906;-78
2023/01/02 03:20:24;;;;;;;13.27;7.40;;;12.00;99.90;;;;;;5057167;28;20453;-78
2023/01/02 03:23:01;;;;;;;9.83;7.30;;;12.10;99.90;;;;;;5057541;28;20919;-78
2023/01/02 03:25:31;;;;;;;11.27;8.40;;;12.10;99.90;;;;;;5074894;28;20553;-78
2023/01/02 03:28:03;;;;;;;10.10;7.37;;;12.10;99.90;;;;;;5057482;28;20441;-78
2023/01/02 03:30:35;;;;;;;13.87;9.30;;;12.10;99.90;;;;;;5057763;28;20465;-77
2023/01/02 03:33:08;;;;;;;11.20;7.50;;;12.20;99.90;;;;;;5075533;28;20479;-77
2023/01/02 03:35:40;;;;;;;10.73;7.60;;;12.20;99.90;;;;;;5057088;28;20518;-78
2023/01/02 03:38:14;;;;;;;8.50;7.20;;;12.20;99.90;;;;;;5056628;28;20441;-78
2023/01/02 03:40:47;;;;;;;11.60;8.07;;;12.20;99.90;;;;;;5056572;28;20938;-77
2023/01/02 03:43:21;;;;;;;13.33;7.80;;;12.20;99.90;;;;;;5074750;28;20520;-78
2023/01/02 03:45:54;;;;;;;15.07;8.30;;;12.30;99.90;;;;;;5074823;28;20463;-78
2023/01/02 03:48:33;;;;;;;10.63;7.57;;;12.30;99.90;;;;;;5056667;28;20442;-78
2023/01/02 03:51:03;;;;;;;10.93;7.40;;;12.30;99.90;;;;;;5074647;28;20575;-78
2023/01/02 03:53:33;;;;;;;12.40;8.53;;;12.30;99.90;;;;;;5057245;28;20968;-78
2023/01/02 03:56:10;;;;;;;10.70;7.57;;;12.30;99.90;;;;;;5075667;28;20461;-78
2023/01/02 03:58:46;;;;;;;13.40;8.27;;;12.30;99.90;;;;;;5057254;28;20453;-78
2023/01/02 04:01:21;;;;;;;9.73;7.57;;;12.30;99.90;;;;;;5057729;28;20492;-78
2023/01/02 04:03:56;;;;;;;9.70;7.60;;;12.30;99.90;;;;;;5057773;28;20472;-78
2023/01/02 04:06:28;;;;;;;12.30;8.30;;;12.30;99.90;;;;;;5056877;28;20522;-77
2023/01/02 04:09:03;;;;;;;11.20;7.80;;;12.30;99.90;;;;;;5056598;28;20537;-77
2023/01/02 04:11:35;;;;;;;10.03;7.30;;;12.40;99.90;;;;;;5057465;28;20463;-77
2023/01/02 04:14:10;;;;;;;11.47;7.50;;;12.40;99.90;;;;;;5057345;28;20536;-77
2023/01/02 04:16:41;;;;;;;11.23;7.27;;;12.40;99.90;;;;;;5058149;28;20483;-78
2023/01/02 04:19:13;;;;;;;12.23;8.60;;;12.40;99.90;;;;;;5076412;28;20421;-78
2023/01/02 04:21:43;;;;;;;17.27;7.87;;;12.40;99.90;;;;;;5060363;28;20441;-78
2023/01/02 04:24:15;;;;;;;11.97;7.63;;;12.40;99.90;;;;;;5078709;28;20506;-78
2023/01/02 04:26:48;;;;;;;14.90;7.73;;;12.40;99.90;;;;;;5078790;28;20457;-78
2023/01/02 04:29:17;;;;;;;12.47;7.20;;;12.40;99.90;;;;;;5060687;28;20540;-78
2023/01/02 04:31:50;;;;;;;13.23;9.27;;;12.40;99.90;;;;;;5079971;28;20464;-78
2023/01/02 04:34:21;;;;;;;12.80;8.10;;;12.40;99.90;;;;;;5061980;28;20461;-78
2023/01/02 04:36:50;;;;;;;12.87;8.90;;;12.40;99.90;;;;;;5063062;28;20465;-78
2023/01/02 04:39:20;;;;;;;10.90;9.10;;;12.40;99.90;;;;;;5080902;28;20995;-78
2023/01/02 04:41:49;;;;;;;11.70;8.30;;;12.40;99.90;;;;;;5063479;28;20494;-78
2023/01/02 04:44:17;;;;;;;14.47;9.03;;;12.30;99.90;;;;;;5081484;28;20437;-77
2023/01/02 04:46:45;;;;;;;10.50;8.50;;;12.40;99.90;;;;;;5083496;28;20531;-77
2023/01/02 04:49:13;;;;;;;13.97;9.30;;;12.40;99.90;;;;;;5084349;28;20429;-79
2023/01/02 04:51:43;;;;;;;11.40;8.30;;;12.40;99.90;;;;;;5084283;28;20486;-78
2023/01/02 04:54:12;;;;;;;12.53;9.07;;;12.40;99.90;;;;;;5065949;28;20445;-77
2023/01/02 04:56:40;;;;;;;12.00;9.80;;;12.40;99.90;;;;;;5085180;28;20826;-79
2023/01/02 04:59:08;;;;;;;14.03;9.20;;;12.40;99.90;;;;;;5066320;28;20946;-78
2023/01/02 05:01:36;;;;;;;12.40;9.33;;;12.40;99.90;;;;;;5083991;28;20474;-78
2023/01/02 05:04:05;;;;;;;10.70;9.60;;;12.40;99.90;;;;;;5067155;28;20449;-78
2023/01/02 05:06:33;;;;;;;13.33;10.17;;;12.40;99.90;;;;;;5067335;28;20457;-78
2023/01/02 05:09:03;;;;;;;13.23;9.20;;;12.40;99.90;;;;;;5081985;28;20429;-76
2023/01/02 05:11:31;;;;;;;11.70;10.10;;;12.40;99.90;;;;;;5082296;28;20528;-78
2023/01/02 05:13:59;;;;;;;13.63;10.50;;;12.40;99.90;;;;;;5083805;28;20442;-78
2023/01/02 05:16:34;;;;;;;16.00;11.63;;;12.40;99.90;;;;;;5068015;28;20840;-79
2023/01/02 05:19:02;;;;;;;13.53;10.57;;;12.40;99.90;;;;;;5081090;28;20456;-78
2023/01/02 05:24:17;;;;;;;13.27;11.87;;;12.40;99.90;;;;;;5058741;28;20972;-77
2023/01/02 05:26:46;;;;;;;14.57;12.20;;;12.40;99.90;;;;;;5059004;28;20472;-76
2023/01/02 05:29:14;;;;;;;13.03;11.63;;;12.40;99.90;;;;;;5059069;28;20468;-77
2023/01/02 05:31:42;;;;;;;14.70;11.60;;;12.50;99.90;;;;;;5058154;28;20476;-77
2023/01/02 05:34:14;;;;;;;13.60;11.43;;;12.50;99.90;;;;;;5061455;28;20445;-78
2023/01/02 05:36:43;;;;;;;13.47;12.13;;;12.50;99.90;;;;;;5082881;28;20469;-78
2023/01/02 05:39:13;;;;;;;17.57;12.57;;;12.50;99.90;;;;;;5062357;28;20464;-77
2023/01/02 05:41:42;;;;;;;13.87;11.60;;;12.50;99.90;;;;;;5066266;28;20440;-79
2023/01/02 05:44:11;;;;;;;15.30;11.63;;;12.50;99.90;;;;;;5062282;28;20450;-77
2023/01/02 05:46:40;;;;;;;14.23;10.73;;;12.50;99.90;;;;;;5063796;28;20515;-77
2023/01/02 05:49:09;;;;;;;13.70;10.53;;;12.50;99.90;;;;;;5065682;28;20525;-78
2023/01/02 05:51:38;;;;;;;13.50;11.13;;;12.50;99.90;;;;;;5078752;28;21061;-77
2023/01/02 05:54:06;;;;;;;12.83;11.40;;;12.50;99.90;;;;;;5079694;28;20441;-79
2023/01/02 05:56:34;;;;;;;15.40;11.37;;;12.50;99.90;;;;;;5062055;28;20461;-77
2023/01/02 05:59:07;;;;;;;14.77;10.73;;;12.50;99.90;;;;;;5079747;28;20509;-78
2023/01/02 06:01:35;;;;;;;15.23;12.10;;;12.50;99.90;;;;;;5061762;28;20505;-77
2023/01/02 06:04:04;;;;;;;13.20;10.93;;;12.60;99.90;;;;;;5059120;28;20498;-77
2023/01/02 06:06:34;;;;;;;13.40;10.40;;;12.50;99.90;;;;;;5061884;28;20534;-79
2023/01/02 06:09:03;;;;;;;16.00;10.80;;;12.50;99.90;;;;;;5063662;28;20453;-78
2023/01/02 06:11:31;;;;;;;17.10;10.20;;;12.60;99.90;;;;;;5081704;28;20473;-78
2023/01/02 06:14:00;;;;;;;12.63;9.80;;;12.60;99.90;;;;;;5081369;28;20533;-78
2023/01/02 06:16:29;;;;;;;16.07;10.93;;;12.60;99.90;;;;;;5081715;28;20453;-78
2023/01/02 06:18:58;;;;;;;13.03;10.17;;;12.60;99.90;;;;;;5067046;28;20552;-79
2023/01/02 06:21:26;;;;;;;12.90;10.40;;;12.60;99.90;;;;;;5065316;28;20453;-78
2023/01/02 06:23:56;;;;;;;17.33;12.03;;;12.60;99.90;;;;;;5080826;28;20964;-78
2023/01/02 06:26:25;;;;;;;15.40;10.60;;;12.60;99.90;;;;;;5064462;28;20883;-78
2023/01/02 06:29:01;;;;;;;12.73;10.70;;;12.60;99.90;;;;;;5082579;28;20421;-78
2023/01/02 06:31:32;;;;;;;12.47;10.80;;;12.60;99.90;;;;;;5062949;28;20480;-77
2023/01/02 06:34:02;;;;;;;16.20;12.33;;;12.60;99.90;;;;;;5063425;28;20481;-78
2023/01/02 06:36:32;;;;;;;13.03;10.27;;;12.60;99.90;;;;;;5063418;28;20542;-79
2023/01/02 06:39:00;;;;;;;14.80;12.33;;;12.60;99.90;;;;;;5084124;28;20436;-79
2023/01/02 06:41:28;;;;;;;14.10;11.87;;;12.50;99.90;;;;;;5062263;28;20537;-77
2023/01/02 06:43:57;;;;;;;13.53;11.07;;;12.60;99.90;;;;;;5057747;28;20452;-78
2023/01/02 06:46:25;;;;;;;14.70;11.20;;;12.60;99.90;;;;;;5077664;28;20804;-77
2023/01/02 06:48:55;;;;;;;13.33;11.90;;;12.60;99.90;;;;;;5063885;28;20445;-79
2023/01/02 06:51:24;;;;;;;17.07;11.73;;;12.70;99.90;;;;;;5059824;28;20556;-78
2023/01/02 06:53:52;;;;;;;13.20;11.10;;;12.70;99.90;;;;;;5060785;28;20514;-77
2023/01/02 06:56:21;;;;;;;15.83;11.20;;;12.70;99.90;;;;;;5062703;28;20469;-78
2023/01/02 06:58:49;;;;;;;16.90;12.03;;;12.70;99.90;;;;;;5061085;28;20541;-79
2023/01/02 07:01:19;;;;;;;15.80;12.07;;;12.70;99.90;;;;;;5060126;28;20477;-78
2023/01/02 07:03:48;;;;;;;15.00;10.50;;;12.70;99.90;;;;;;5081208;28;20463;-78
2023/01/02 07:06:21;;;;;;;13.17;11.63;;;12.70;99.90;;;;;;5060915;28;20479;-78
2023/01/02 07:08:50;;;;;;;12.70;11.50;;;12.70;99.90;;;;;;5078328;28;20479;-78
2023/01/02 07:11:23;;;;;;;15.10;11.63;;;12.70;99.90;;;;;;5077226;28;20422;-78
2023/01/02 07:13:53;;;;;;;12.33;11.00;;;12.80;99.90;;;;;;5059688;28;20461;-78
2023/01/02 07:16:22;;;;;;;16.97;12.17;;;12.80;99.90;;;;;;5059901;28;20530;-78
2023/01/02 07:18:52;;;;;;;12.30;10.83;;;12.80;99.90;;;;;;5079750;28;20433;-77
2023/01/02 07:21:22;;;;;;;13.33;12.03;;;12.80;99.90;;;;;;5080924;28;20877;-79
2023/01/02 07:23:50;;;;;;;14.53;11.80;;;12.80;99.90;;;;;;5062312;28;20448;-78
2023/01/02 07:26:19;;;;;;;12.63;11.43;;;12.80;99.90;;;;;;5078146;28;20457;-78
2023/01/02 07:28:47;;;;;;;15.27;11.70;;;12.80;99.90;;;;;;5059676;28;20823;-78
2023/01/02 07:31:18;;;;;;;12.83;11.50;;;12.80;99.90;;;;;;5060408;28;20441;-78
2023/01/02 07:33:47;;;;;;;14.03;12.60;;;12.80;99.90;;;;;;5063860;28;20461;-79
2023/01/02 07:36:16;;;;;;;13.73;12.30;;;12.80;99.90;;;;;;5080628;28;20962;-77
2023/01/02 07:38:50;;;;;;;12.80;11.60;;;12.80;99.90;;;;;;5059206;28;20797;-78
2023/01/02 07:41:21;;;;;;;13.17;11.87;;;12.80;99.90;;;;;;5062439;28;20840;-77
2023/01/02 07:43:50;;;;;;;13.13;11.80;;;12.80;99.90;;;;;;5060834;28;20434;-78
2023/01/02 07:46:19;;;;;;;13.00;11.70;;;12.80;99.90;;;;;;5061016;28;20473;-78
2023/01/02 07:48:49;;;;;;;14.40;11.90;;;12.90;99.90;;;;;;5058640;28;20445;-77
2023/01/02 07:51:18;;;;;;;13.40;12.03;;;12.80;99.90;;;;;;5059347;28;20456;-79
2023/01/02 07:53:57;;;;;;;12.20;11.00;;;12.90;99.90;;;;;;5060609;28;20468;-78
2023/01/02 07:56:25;;;;;;;12.97;11.63;;;12.90;99.90;;;;;;5075936;28;20492;-77
2023/01/02 07:58:54;;;;;;;12.47;11.03;;;12.90;99.90;;;;;;5078281;28;20441;-78
2023/01/02 08:01:22;;;;;;;14.10;11.50;;;12.90;99.90;;;;;;5059223;28;20806;-78
2023/01/02 08:03:51;;;;;;;11.27;10.27;;;12.90;99.90;;;;;;5059047;28;20449;-78
2023/01/02 08:06:20;;;;;;;15.83;11.47;;;12.90;99.90;;;;;;5077371;28;20522;-78
2023/01/02 08:08:48;;;;;;;12.60;11.27;;;12.90;99.90;;;;;;5058524;28;20498;-78
2023/01/02 08:11:20;;;;;;;11.70;10.50;;;12.90;99.90;;;;;;5057844;28;20499;-78
2023/01/02 08:13:48;;;;;;;12.17;10.97;;;12.90;99.90;;;;;;5058586;28;20465;-78
2023/01/02 08:16:18;;;;;;;13.73;10.37;;;12.90;99.90;;;;;;5058247;28;20986;-77
2023/01/02 08:18:50;;;;;;;12.77;11.17;;;12.90;99.90;;;;;;5059088;28;20491;-78
2023/01/02 08:21:18;;;;;;;12.60;11.40;;;12.90;99.90;;;;;;5058605;28;20531;-78
2023/01/02 08:23:46;;;;;;;11.47;10.27;;;13.00;99.90;;;;;;5058463;28;20444;-76
2023/01/02 08:26:15;;;;;;;12.40;10.47;;;12.90;99.90;;;;;;5057039;28;20907;-79
2023/01/02 08:28:45;;;;;;;11.03;9.70;;;12.90;99.90;;;;;;5059451;28;20452;-77
2023/01/02 08:31:16;;;;;;;13.03;10.50;;;13.00;99.90;;;;;;5058942;28;20499;-78
2023/01/02 08:33:45;;;;;;;12.90;10.50;;;13.00;99.90;;;;;;5077832;28;20921;-78
2023/01/02 08:36:14;;;;;;;10.53;9.43;;;13.00;99.90;;;;;;5060459;28;20461;-77
2023/01/02 08:38:42;;;;;;;10.87;9.87;;;13.00;99.90;;;;;;5075134;28;20975;-78
2023/01/02 08:41:11;;;;;;;12.00;10.30;;;13.00;99.90;;;;;;5059019;28;20453;-78
2023/01/02 08:43:40;;;;;;;11.87;8.63;;;13.00;99.90;;;;;;5077322;28;20441;-78
2023/01/02 08:46:10;;;;;;;11.27;9.60;;;13.00;99.90;;;;;;5075168;28;20460;-77
2023/01/02 08:48:38;;;;;;;10.90;8.30;;;13.00;99.90;;;;;;5055670;28;20445;-78
2023/01/02 08:51:06;;;;;;;10.70;9.17;;;13.00;99.90;;;;;;5078307;28;20456;-78
2023/01/02 08:53:34;;;;;;;9.47;8.57;;;13.00;99.90;;;;;;5078761;28;20469;-78
2023/01/02 08:56:20;;;;;;;11.40;9.20;;;13.00;99.90;;;;;;5059026;28;20472;-78
2023/01/02 08:58:53;;;;;;;9.90;8.30;;;13.10;99.90;;;;;;5058513;28;20460;-77
2023/01/02 09:01:24;;;;;;;9.57;8.03;;;13.10;99.90;;;;;;5059089;28;20449;-78
2023/01/02 09:03:54;;;;;;;10.30;8.43;;;13.10;99.90;;;;;;5077119;28;20421;-78
2023/01/02 09:06:24;;;;;;;9.83;8.50;;;13.10;99.90;;;;;;5060423;28;20559;-78
2023/01/02 09:08:54;;;;;;;11.00;8.67;;;13.10;99.90;;;;;;5078403;28;20429;-78
2023/01/02 09:11:24;;;;;;;9.20;6.87;;;13.10;99.90;;;;;;5078777;28;20447;-78
2023/01/02 09:13:52;;;;;;;11.20;8.07;;;13.10;99.90;;;;;;5058691;28;20461;-77
2023/01/02 09:16:21;;;;;;;11.73;7.10;;;13.10;99.90;;;;;;5062097;28;20476;-78
2023/01/02 09:18:51;;;;;;;10.33;7.33;;;13.20;99.90;;;;;;5060588;28;20453;-78
2023/01/02 09:21:19;;;;;;;7.93;6.63;;;13.10;99.90;;;;;;5060913;28;20491;-78
2023/01/02 09:23:47;;;;;;;11.50;6.87;;;13.10;99.90;;;;;;5061020;28;20449;-78
2023/01/02 09:26:16;;;;;;;7.87;6.47;;;13.10;99.90;;;;;;5060783;28;20457;-78
2023/01/02 09:28:45;;;;;;;11.13;6.83;;;13.10;99.90;;;;;;5060344;28;20481;-78
2023/01/02 09:31:15;;;;;;;7.53;5.57;;;13.10;99.90;;;;;;5078457;28;20927;-77
2023/01/02 09:33:45;;;;;;;10.00;5.80;;;13.10;99.90;;;;;;5059319;28;20457;-78
2023/01/02 09:36:16;;;;;;;8.70;5.60;;;13.10;99.90;;;;;;5077859;28;20471;-78
2023/01/02 09:38:44;;;;;;;6.83;5.63;;;13.10;99.90;;;;;;5077819;28;20436;-78
2023/01/02 09:41:27;;;;;;;6.43;4.70;;;13.20;99.90;;;;;;5060107;28;20966;-78
2023/01/02 09:44:00;;;;;;;7.10;5.13;;;13.10;99.90;;;;;;5059668;28;20444;-77
2023/01/02 09:46:35;;;;;;;6.30;5.23;;;13.10;99.90;;;;;;5077276;28;21035;-78
2023/01/02 09:49:04;;;;;;;8.90;4.10;;;13.10;99.90;;;;;;5059650;28;20480;-78
2023/01/02 09:51:35;;;;;;;5.40;4.00;;;13.10;99.90;;;;;;5058856;28;20461;-78
2023/01/02 09:54:04;;;;;;;5.97;4.20;;;13.10;99.90;;;;;;5059315;28;20473;-77
2023/01/02 09:56:37;;;;;;;6.60;3.90;;;13.10;99.90;;;;;;5077967;28;20973;-77
2023/01/02 09:59:17;;;;;;;6.00;4.17;;;13.10;99.90;;;;;;5059307;28;20555;-77
2023/01/02 10:01:55;;;;;;;6.20;3.70;;;13.10;99.90;;;;;;5077685;28;20418;-77
2023/01/02 10:04:42;;;;;;;9.30;4.10;;;13.10;99.90;;;;;;5078878;28;20441;-78
2023/01/02 10:07:17;;;;;;;5.03;3.90;;;13.10;99.90;;;;;;5060567;28;20472;-77
2023/01/02 10:09:55;;;;;;;5.23;4.10;;;13.10;99.90;;;;;;5060778;28;20502;-76
2023/01/02 10:12:32;;;;;;;6.53;3.50;;;13.00;99.90;;;;;;5057993;28;20433;-76
2023/01/02 10:15:03;;;;;;;5.20;3.70;;;13.10;99.90;;;;;;5061824;28;20547;-77
2023/01/02 10:17:37;;;;;;;5.67;3.90;;;13.00;99.90;;;;;;5077424;28;20437;-76
2023/01/02 10:20:08;;;;;;;5.73;3.20;;;13.00;99.90;;;;;;5075362;28;20433;-77
2023/01/02 10:22:42;;;;;;;4.07;3.10;;;13.00;99.90;;;;;;5057082;28;21008;-76
2023/01/02 10:25:17;;;;;;;4.60;3.27;;;13.00;99.90;;;;;;5057169;28;20576;-76
2023/01/02 10:27:49;;;;;;;4.00;2.60;;;12.90;99.90;;;;;;5057811;28;20460;-77
2023/01/02 10:30:20;;;;;;;4.20;2.30;;;12.90;99.90;;;;;;5075258;28;20417;-77
2023/01/02 10:33:02;;;;;;;3.40;2.27;;;12.80;99.90;;;;;;5076781;28;20432;-78
2023/01/02 10:35:36;;;;;;;3.50;2.50;;;12.80;99.90;;;;;;5058388;28;20487;-78
2023/01/02 10:38:06;;;;;;;4.37;2.80;;;13.80;99.90;;;;;;5059027;28;20441;-77
2023/01/02 10:40:36;;;;;;;2.97;2.10;;;12.70;99.90;;;;;;5058655;28;20878;-78
2023/01/02 10:43:05;;;;;;;3.40;2.40;;;12.60;99.90;;;;;;5057447;28;20469;-77
2023/01/02 10:45:33;;;;;;;3.63;2.90;;;12.50;99.90;;;;;;5056645;28;20818;-76
2023/01/02 10:48:02;;;;;;;3.43;2.10;;;12.40;99.90;;;;;;5075222;28;20433;-77
2023/01/02 10:50:40;;;;;;;3.60;2.17;;;12.40;99.90;;;;;;5057324;28;20540;-76
2023/01/02 10:53:20;;;;;;;3.23;1.80;;;12.30;99.90;;;;;;5075366;28;20501;-78
2023/01/02 10:55:49;;;;;;;2.60;1.53;;;12.20;99.90;;;;;;5056728;28;20849;-76
2023/01/02 10:58:22;;;;;;;2.40;1.00;;;12.20;99.90;;;;;;5076456;28;20437;-79
2023/01/02 11:00:52;;;;;;;2.17;0.80;;;12.10;99.90;;;;;;5078111;28;20474;-76
2023/01/02 11:03:24;;;;;;;2.23;0.87;;;12.00;99.90;;;;;;5058743;28;20500;-78
2023/01/02 11:05:54;;;;;;;2.50;0.93;;;12.00;99.90;;;;;;5077751;28;20518;-77
2023/01/02 11:08:34;;;;;;;2.13;0.73;;;11.90;99.90;;;;;;5059587;28;20480;-78
2023/01/02 11:11:12;;;;;;;2.40;1.00;;;11.80;99.90;;;;;;5059644;28;20445;-78
2023/01/02 11:13:45;;;;;;;2.30;0.87;;;11.80;99.90;;;;;;5075516;28;20487;-77
2023/01/02 11:16:22;;;;;;;2.50;1.07;;;11.70;99.90;;;;;;5074961;28;20449;-76
2023/01/02 11:18:53;;;;;;;2.90;1.20;;;11.60;99.90;;;;;;5075659;28;20843;-76
2023/01/02 11:21:28;;;;;;;2.60;1.13;;;11.60;99.90;;;;;;5057912;28;20453;-78
2023/01/02 11:24:02;;;;;;;2.70;1.43;;;11.50;99.90;;;;;;5076861;28;20437;-78
2023/01/02 11:26:35;;;;;;;2.63;1.40;;;11.40;99.90;;;;;;5056688;28;20500;-78
2023/01/02 11:29:07;;;;;;;2.70;1.40;;;11.40;99.90;;;;;;5056293;28;20469;-77
2023/01/02 11:31:41;;;;;;;3.30;1.33;;;11.30;99.90;;;;;;5077728;28;20834;-77
2023/01/02 11:34:18;;;;;;;2.53;1.47;;;11.30;99.90;;;;;;5060401;28;20441;-78
2023/01/02 11:37:00;;;;;;;2.70;1.50;;;11.20;99.90;;;;;;5075737;28;20464;-77
2023/01/02 11:39:31;;;;;;;2.90;1.70;;;11.20;99.90;;;;;;5077740;28;20421;-77
2023/01/02 11:45:00;;;;;;;3.83;2.10;;;11.10;99.90;;;;;;5074244;28;20494;-76
2023/01/02 11:47:34;;;;;;;3.30;1.90;;;11.10;99.90;;;;;;5074206;28;20436;-77
2023/01/02 11:50:03;;;;;;;3.40;1.90;;;11.10;99.90;;;;;;5055952;28;20449;-76
2023/01/02 11:52:38;;;;;;;3.37;2.00;;;11.10;99.90;;;;;;5055528;28;20468;-76
2023/01/02 11:55:17;;;;;;;3.03;1.80;;;11.10;99.90;;;;;;5073483;28;20462;-77
2023/01/02 11:57:53;;;;;;;3.37;1.50;;;11.10;99.90;;;;;;5074141;28;20427;-76
2023/01/02 12:00:21;;;;;;;3.07;1.87;;;11.00;99.90;;;;;;5055347;28;20443;-77
2023/01/02 12:02:51;;;;;;;3.10;1.40;;;11.00;99.90;;;;;;5073645;28;20434;-77
2023/01/02 12:05:28;;;;;;;3.03;1.67;;;11.00;99.90;;;;;;5073017;28;20461;-77
2023/01/02 12:08:01;;;;;;;3.20;1.70;;;10.90;99.90;;;;;;5055305;28;20518;-77
2023/01/02 12:10:49;;;;;;;2.57;1.30;;;10.90;99.90;;;;;;5055153;28;20446;-77
2023/01/02 12:13:31;;;;;;;3.07;1.50;;;10.90;99.90;;;;;;5073529;28;20422;-76
2023/01/02 12:16:13;;;;;;;2.87;1.30;;;10.90;99.90;;;;;;5055895;28;20473;-77
2023/01/02 12:18:56;;;;;;;2.70;1.10;;;10.80;99.90;;;;;;5056852;28;20510;-78
2023/01/02 12:21:26;;;;;;;2.83;0.90;;;10.80;99.90;;;;;;5058675;28;20458;-78
2023/01/02 12:24:13;;;;;;;3.73;1.10;;;10.80;99.90;;;;;;5073558;28;20437;-76
2023/01/02 12:26:50;;;;;;;2.90;1.27;;;10.80;99.90;;;;;;5073221;28;20485;-77
2023/01/02 12:29:42;;;;;;;3.70;1.20;;;10.80;99.90;;;;;;5055199;28;20437;-77
2023/01/02 12:32:52;;;;;;;3.10;1.50;;;10.80;99.90;;;;;;5055500;28;20805;-78
2023/01/02 12:35:40;;;;;;;3.30;1.43;;;10.80;99.90;;;;;;5073050;28;20480;-77
2023/01/02 12:38:10;;;;;;;3.03;1.53;;;10.80;99.90;;;;;;5058844;28;20789;-78
2023/01/02 12:40:52;;;;;;;3.70;1.80;;;10.80;99.90;;;;;;5055849;28;20942;-78
2023/01/02 12:43:57;;;;;;;3.33;1.53;;;10.80;99.90;;;;;;5077118;28;20558;-77
2023/01/02 12:46:54;;;;;;;3.47;1.50;;;10.80;99.90;;;;;;5077991;28;20539;-77
2023/01/02 12:49:46;;;;;;;3.13;1.70;;;10.80;99.90;;;;;;5035146;28;20453;-77
2023/01/02 12:52:26;;;;;;;3.50;1.50;;;10.80;99.90;;;;;;5054574;28;20507;-78
2023/01/02 12:55:10;;;;;;;2.53;1.10;;;10.80;99.90;;;;;;5060952;28;20461;-78
2023/01/02 12:57:48;;;;;;;2.93;1.40;;;10.80;99.90;;;;;;5078789;28;21006;-78
2023/01/02 13:00:35;;;;;;;3.30;1.83;;;10.80;99.90;;;;;;5079345;28;20437;-78
2023/01/02 13:03:21;;;;;;;2.97;1.50;;;10.80;99.90;;;;;;5061379;28;20441;-77
2023/01/02 13:05:55;;;;;;;2.67;1.60;;;10.80;99.90;;;;;;5081117;28;20459;-78
2023/01/02 13:08:27;;;;;;;3.23;1.40;;;10.80;99.90;;;;;;5058849;28;20440;-77
2023/01/02 13:11:00;;;;;;;3.20;1.60;;;10.80;99.90;;;;;;5059118;28;20531;-77